createdAt,value
2023-03-19T00:00:52.384Z,1007.72
2023-03-19T00:01:52.400Z,1007.72
2023-03-19T00:02:52.523Z,1007.80
2023-03-19T00:03:52.461Z,1007.91
2023-03-19T00:04:52.361Z,1007.91
2023-03-19T00:05:52.359Z,1007.92
2023-03-19T00:06:52.402Z,1007.96
2023-03-19T00:07:52.329Z,1007.99
2023-03-19T00:08:52.344Z,1007.87
2023-03-19T00:09:52.285Z,1007.95
2023-03-19T00:10:52.289Z,1007.99
2023-03-19T00:11:52.268Z,1008.03
2023-03-19T00:12:52.263Z,1008.06
2023-03-19T00:13:52.277Z,1008.06
2023-03-19T00:14:52.235Z,1008.10
2023-03-19T00:15:52.249Z,1008.06
2023-03-19T00:16:52.218Z,1008.02
2023-03-19T00:17:52.202Z,1008.12
2023-03-19T00:18:52.226Z,1008.10
2023-03-19T00:19:52.180Z,1008.19
2023-03-19T00:20:52.167Z,1008.24
2023-03-19T00:21:52.149Z,1008.25
2023-03-19T00:22:52.157Z,1008.19
2023-03-19T00:23:52.141Z,1008.20
2023-03-19T00:24:53.016Z,1008.17
2023-03-19T00:25:52.113Z,1008.13
2023-03-19T00:26:52.091Z,1008.12
2023-03-19T00:27:52.090Z,1008.09
2023-03-19T00:28:52.120Z,1007.99
2023-03-19T00:29:52.065Z,1007.92
2023-03-19T00:30:52.059Z,1007.85
2023-03-19T00:31:52.031Z,1007.71
2023-03-19T00:32:52.051Z,1007.62
2023-03-19T00:33:52.016Z,1007.72
2023-03-19T00:34:52.031Z,1007.80
2023-03-19T00:35:52.045Z,1007.84
2023-03-19T00:36:52.010Z,1007.82
2023-03-19T00:37:51.979Z,1007.90
2023-03-19T00:38:51.973Z,1007.86
2023-03-19T00:39:51.950Z,1007.88
2023-03-19T00:40:51.940Z,1007.87
2023-03-19T00:41:51.996Z,1007.91
2023-03-19T00:42:51.916Z,1008.00
2023-03-19T00:43:51.913Z,1008.04
2023-03-19T00:44:51.907Z,1008.01
2023-03-19T00:45:51.900Z,1008.02
2023-03-19T00:46:51.892Z,1007.96
2023-03-19T00:47:51.878Z,1007.99
2023-03-19T00:48:51.856Z,1008.01
2023-03-19T00:49:51.856Z,1008.02
2023-03-19T00:50:51.840Z,1008.01
2023-03-19T00:51:51.814Z,1007.93
2023-03-19T00:52:51.824Z,1007.96
2023-03-19T00:53:51.796Z,1007.93
2023-03-19T00:54:51.799Z,1007.94
2023-03-19T00:55:51.778Z,1007.97
2023-03-19T00:56:51.773Z,1007.95
2023-03-19T00:57:51.769Z,1007.97
2023-03-19T00:58:51.769Z,1007.93
2023-03-19T00:59:51.724Z,1007.91
2023-03-19T01:00:51.774Z,1007.85
2023-03-19T01:01:51.703Z,1007.87
2023-03-19T01:02:51.708Z,1007.88
2023-03-19T01:03:52.544Z,1007.84
2023-03-19T01:04:51.672Z,1007.83
2023-03-19T01:05:59.117Z,1007.84
2023-03-19T01:06:51.702Z,1007.80
2023-03-19T01:07:51.653Z,1007.78
2023-03-19T01:08:51.632Z,1007.80
2023-03-19T01:09:51.613Z,1007.80
2023-03-19T01:10:51.615Z,1007.78
2023-03-19T01:11:51.626Z,1007.75
2023-03-19T01:12:51.588Z,1007.80
2023-03-19T01:13:51.583Z,1007.81
2023-03-19T01:14:51.599Z,1007.89
2023-03-19T01:15:51.540Z,1007.84
2023-03-19T01:16:51.555Z,1007.84
2023-03-19T01:17:51.527Z,1007.90
2023-03-19T01:18:51.536Z,1007.89
2023-03-19T01:19:51.514Z,1007.86
2023-03-19T01:20:51.479Z,1007.91
2023-03-19T01:21:51.490Z,1007.92
2023-03-19T01:22:51.485Z,1007.92
2023-03-19T01:23:51.450Z,1007.90
2023-03-19T01:24:51.464Z,1007.88
2023-03-19T01:25:51.430Z,1007.90
2023-03-19T01:26:51.413Z,1007.89
2023-03-19T01:27:51.425Z,1007.90
2023-03-19T01:28:51.402Z,1007.85
2023-03-19T01:29:51.407Z,1007.84
2023-03-19T01:30:51.434Z,1007.88
2023-03-19T01:31:51.405Z,1007.83
2023-03-19T01:32:51.399Z,1007.82
2023-03-19T01:33:51.335Z,1007.90
2023-03-19T01:34:51.325Z,1007.84
2023-03-19T01:35:51.339Z,1007.82
2023-03-19T01:36:52.823Z,1007.78
2023-03-19T01:37:52.270Z,1007.77
2023-03-19T01:38:51.283Z,1007.71
2023-03-19T01:39:51.293Z,1007.71
2023-03-19T01:40:51.259Z,1007.67
2023-03-19T01:41:51.283Z,1007.66
2023-03-19T01:42:51.262Z,1007.68
2023-03-19T01:43:51.231Z,1007.72
2023-03-19T01:44:51.216Z,1007.72
2023-03-19T01:45:51.514Z,1007.65
2023-03-19T01:46:51.254Z,1007.64
2023-03-19T01:47:51.184Z,1007.64
2023-03-19T01:48:51.204Z,1007.66
2023-03-19T01:49:51.164Z,1007.67
2023-03-19T01:50:51.156Z,1007.59
2023-03-19T01:51:51.169Z,1007.65
2023-03-19T01:52:51.128Z,1007.65
2023-03-19T01:53:51.124Z,1007.70
2023-03-19T01:54:51.138Z,1007.71
2023-03-19T01:55:51.128Z,1007.65
2023-03-19T01:56:51.086Z,1007.62
2023-03-19T01:57:51.106Z,1007.66
2023-03-19T01:58:51.056Z,1007.65
2023-03-19T01:59:51.044Z,1007.61
2023-03-19T02:00:51.041Z,1007.66
2023-03-19T02:01:51.097Z,1007.68
2023-03-19T02:02:51.027Z,1007.69
2023-03-19T02:03:51.040Z,1007.68
2023-03-19T02:04:51.051Z,1007.63
2023-03-19T02:05:50.988Z,1007.70
2023-03-19T02:06:51.002Z,1007.62
2023-03-19T02:07:50.997Z,1007.64
2023-03-19T02:08:50.962Z,1007.63
2023-03-19T02:09:50.933Z,1007.59
2023-03-19T02:10:50.918Z,1007.62
2023-03-19T02:11:50.906Z,1007.64
2023-03-19T02:12:50.937Z,1007.62
2023-03-19T02:13:50.898Z,1007.61
2023-03-19T02:14:50.878Z,1007.61
2023-03-19T02:15:50.948Z,1007.66
2023-03-19T02:16:50.902Z,1007.60
2023-03-19T02:17:52.353Z,1007.65
2023-03-19T02:18:50.833Z,1007.65
2023-03-19T02:19:50.822Z,1007.69
2023-03-19T02:20:50.817Z,1007.67
2023-03-19T02:21:50.841Z,1007.70
2023-03-19T02:22:52.259Z,1007.66
2023-03-19T02:23:50.772Z,1007.66
2023-03-19T02:24:50.794Z,1007.71
2023-03-19T02:25:50.746Z,1007.67
2023-03-19T02:26:50.785Z,1007.66
2023-03-19T02:27:50.754Z,1007.64
2023-03-19T02:28:50.714Z,1007.64
2023-03-19T02:29:50.711Z,1007.65
2023-03-19T02:30:50.755Z,1007.67
2023-03-19T02:31:50.707Z,1007.58
2023-03-19T02:32:50.720Z,1007.67
2023-03-19T02:33:50.663Z,1007.61
2023-03-19T02:34:50.652Z,1007.60
2023-03-19T02:35:50.685Z,1007.57
2023-03-19T02:36:50.668Z,1007.58
2023-03-19T02:37:50.620Z,1007.56
2023-03-19T02:38:50.603Z,1007.49
2023-03-19T02:39:50.606Z,1007.56
2023-03-19T02:40:50.571Z,1007.45
2023-03-19T02:41:50.569Z,1007.50
2023-03-19T02:42:50.594Z,1007.51
2023-03-19T02:43:50.562Z,1007.49
2023-03-19T02:44:50.540Z,1007.53
2023-03-19T02:45:50.530Z,1007.54
2023-03-19T02:46:50.566Z,1007.56
2023-03-19T02:47:50.545Z,1007.52
2023-03-19T02:48:50.501Z,1007.49
2023-03-19T02:49:50.495Z,1007.51
2023-03-19T02:50:50.477Z,1007.53
2023-03-19T02:51:50.485Z,1007.48
2023-03-19T02:52:50.451Z,1007.52
2023-03-19T02:53:52.014Z,1007.54
2023-03-19T02:54:50.455Z,1007.57
2023-03-19T02:55:50.410Z,1007.52
2023-03-19T02:56:50.407Z,1007.57
2023-03-19T02:57:50.412Z,1007.56
2023-03-19T02:58:50.398Z,1007.52
2023-03-19T02:59:50.379Z,1007.52
2023-03-19T03:00:50.405Z,1007.53
2023-03-19T03:01:50.434Z,1007.52
2023-03-19T03:02:50.341Z,1007.55
2023-03-19T03:03:50.346Z,1007.53
2023-03-19T03:04:50.317Z,1007.54
2023-03-19T03:05:50.312Z,1007.58
2023-03-19T03:06:51.748Z,1007.55
2023-03-19T03:07:50.279Z,1007.56
2023-03-19T03:08:50.678Z,1007.54
2023-03-19T03:09:50.247Z,1007.56
2023-03-19T03:10:50.236Z,1007.58
2023-03-19T03:11:50.236Z,1007.62
2023-03-19T03:12:51.187Z,1007.56
2023-03-19T03:13:50.231Z,1007.60
2023-03-19T03:14:50.219Z,1007.61
2023-03-19T03:15:50.181Z,1007.60
2023-03-19T03:16:50.175Z,1007.61
2023-03-19T03:17:50.199Z,1007.59
2023-03-19T03:18:50.247Z,1007.61
2023-03-19T03:19:50.169Z,1007.62
2023-03-19T03:20:50.135Z,1007.61
2023-03-19T03:21:50.157Z,1007.65
2023-03-19T03:22:50.131Z,1007.63
2023-03-19T03:23:50.113Z,1007.66
2023-03-19T03:24:50.085Z,1007.66
2023-03-19T03:25:50.088Z,1007.70
2023-03-19T03:26:50.067Z,1007.70
2023-03-19T03:27:50.107Z,1007.69
2023-03-19T03:28:51.024Z,1007.74
2023-03-19T03:29:50.032Z,1007.71
2023-03-19T03:30:50.027Z,1007.71
2023-03-19T03:31:50.014Z,1007.77
2023-03-19T03:32:50.055Z,1007.76
2023-03-19T03:33:49.994Z,1007.70
2023-03-19T03:34:51.489Z,1007.77
2023-03-19T03:35:50.017Z,1007.76
2023-03-19T03:36:49.970Z,1007.74
2023-03-19T03:37:49.963Z,1007.75
2023-03-19T03:38:49.989Z,1007.78
2023-03-19T03:39:49.927Z,1007.75
2023-03-19T03:40:50.101Z,1007.75
2023-03-19T03:41:49.887Z,1007.72
2023-03-19T03:42:49.877Z,1007.82
2023-03-19T03:43:49.874Z,1007.77
2023-03-19T03:44:49.864Z,1007.80
2023-03-19T03:45:49.926Z,1007.76
2023-03-19T03:46:49.887Z,1007.78
2023-03-19T03:47:49.843Z,1007.80
2023-03-19T03:48:49.830Z,1007.73
2023-03-19T03:49:49.803Z,1007.78
2023-03-19T03:50:49.805Z,1007.76
2023-03-19T03:51:49.782Z,1007.79
2023-03-19T03:52:49.793Z,1007.81
2023-03-19T03:53:49.798Z,1007.83
2023-03-19T03:54:49.760Z,1007.87
2023-03-19T03:55:49.741Z,1007.86
2023-03-19T03:56:49.738Z,1007.86
2023-03-19T03:57:49.732Z,1007.86
2023-03-19T03:58:49.748Z,1007.91
2023-03-19T03:59:49.692Z,1007.93
2023-03-19T04:00:49.723Z,1007.90
2023-03-19T04:01:49.773Z,1007.95
2023-03-19T04:02:49.711Z,1007.98
2023-03-19T04:03:49.682Z,1007.92
2023-03-19T04:04:49.654Z,1007.96
2023-03-19T04:05:51.133Z,1007.96
2023-03-19T04:06:50.575Z,1008.04
2023-03-19T04:07:50.570Z,1008.01
2023-03-19T04:08:49.608Z,1008.00
2023-03-19T04:09:49.617Z,1008.00
2023-03-19T04:10:49.606Z,1007.96
2023-03-19T04:11:51.485Z,1007.99
2023-03-19T04:12:49.553Z,1007.96
2023-03-19T04:13:49.552Z,1007.93
2023-03-19T04:14:49.575Z,1007.92
2023-03-19T04:15:49.506Z,1007.91
2023-03-19T04:16:49.588Z,1007.95
2023-03-19T04:17:49.487Z,1007.93
2023-03-19T04:18:49.540Z,1007.96
2023-03-19T04:19:49.468Z,1007.91
2023-03-19T04:20:49.498Z,1007.94
2023-03-19T04:21:49.457Z,1007.98
2023-03-19T04:22:49.429Z,1007.98
2023-03-19T04:23:49.485Z,1008.06
2023-03-19T04:24:49.431Z,1008.07
2023-03-19T04:25:49.404Z,1008.01
2023-03-19T04:26:49.424Z,1008.05
2023-03-19T04:27:49.373Z,1008.03
2023-03-19T04:28:49.372Z,1008.05
2023-03-19T04:29:49.387Z,1008.04
2023-03-19T04:30:49.386Z,1008.06
2023-03-19T04:31:49.363Z,1008.09
2023-03-19T04:32:49.398Z,1008.10
2023-03-19T04:33:49.320Z,1008.09
2023-03-19T04:34:49.307Z,1008.08
2023-03-19T04:35:49.315Z,1008.12
2023-03-19T04:36:50.343Z,1008.08
2023-03-19T04:37:49.294Z,1008.09
2023-03-19T04:38:49.263Z,1008.11
2023-03-19T04:39:49.264Z,1008.12
2023-03-19T04:40:49.243Z,1008.11
2023-03-19T04:41:49.254Z,1008.09
2023-03-19T04:42:49.227Z,1008.12
2023-03-19T04:43:49.255Z,1008.16
2023-03-19T04:44:49.266Z,1008.13
2023-03-19T04:45:49.190Z,1008.13
2023-03-19T04:46:49.222Z,1008.10
2023-03-19T04:47:49.152Z,1008.12
2023-03-19T04:48:49.147Z,1008.12
2023-03-19T04:49:49.147Z,1008.11
2023-03-19T04:50:49.131Z,1008.15
2023-03-19T04:51:49.106Z,1008.18
2023-03-19T04:52:49.164Z,1008.18
2023-03-19T04:53:49.080Z,1008.21
2023-03-19T04:54:49.492Z,1008.18
2023-03-19T04:55:49.065Z,1008.18
2023-03-19T04:56:49.064Z,1008.22
2023-03-19T04:57:49.900Z,1008.24
2023-03-19T04:58:49.050Z,1008.18
2023-03-19T04:59:49.022Z,1008.22
2023-03-19T05:00:49.000Z,1008.23
2023-03-19T05:01:49.064Z,1008.19
2023-03-19T05:02:49.108Z,1008.22
2023-03-19T05:03:49.022Z,1008.24
2023-03-19T05:04:48.992Z,1008.21
2023-03-19T05:05:48.948Z,1008.22
2023-03-19T05:06:49.023Z,1008.26
2023-03-19T05:07:48.986Z,1008.30
2023-03-19T05:08:48.925Z,1008.26
2023-03-19T05:09:48.909Z,1008.24
2023-03-19T05:10:48.899Z,1008.25
2023-03-19T05:11:48.951Z,1008.23
2023-03-19T05:12:48.884Z,1008.33
2023-03-19T05:13:48.854Z,1008.28
2023-03-19T05:14:48.843Z,1008.29
2023-03-19T05:15:48.896Z,1008.33
2023-03-19T05:16:49.790Z,1008.35
2023-03-19T05:17:49.656Z,1008.36
2023-03-19T05:18:48.846Z,1008.39
2023-03-19T05:19:48.803Z,1008.38
2023-03-19T05:20:48.812Z,1008.40
2023-03-19T05:21:48.760Z,1008.37
2023-03-19T05:22:48.763Z,1008.36
2023-03-19T05:23:48.781Z,1008.42
2023-03-19T05:24:48.733Z,1008.39
2023-03-19T05:25:48.736Z,1008.39
2023-03-19T05:26:48.749Z,1008.36
2023-03-19T05:27:48.692Z,1008.42
2023-03-19T05:28:48.768Z,1008.40
2023-03-19T05:29:48.708Z,1008.31
2023-03-19T05:30:48.774Z,1008.39
2023-03-19T05:31:48.658Z,1008.41
2023-03-19T05:32:48.723Z,1008.40
2023-03-19T05:33:48.681Z,1008.34
2023-03-19T05:34:48.735Z,1008.32
2023-03-19T05:35:48.662Z,1008.32
2023-03-19T05:36:48.637Z,1008.34
2023-03-19T05:37:48.598Z,1008.36
2023-03-19T05:38:48.622Z,1008.40
2023-03-19T05:39:48.578Z,1008.42
2023-03-19T05:40:48.598Z,1008.46
2023-03-19T05:41:48.598Z,1008.47
2023-03-19T05:42:48.591Z,1008.50
2023-03-19T05:43:48.583Z,1008.41
2023-03-19T05:44:48.527Z,1008.47
2023-03-19T05:45:49.596Z,1008.51
2023-03-19T05:46:48.631Z,1008.51
2023-03-19T05:47:48.488Z,1008.53
2023-03-19T05:48:48.469Z,1008.52
2023-03-19T05:49:48.448Z,1008.52
2023-03-19T05:50:48.460Z,1008.55
2023-03-19T05:51:48.445Z,1008.51
2023-03-19T05:52:48.443Z,1008.55
2023-03-19T05:53:49.617Z,1008.63
2023-03-19T05:54:48.394Z,1008.61
2023-03-19T05:55:48.376Z,1008.62
2023-03-19T05:56:48.371Z,1008.61
2023-03-19T05:57:48.376Z,1008.61
2023-03-19T05:58:49.618Z,1008.70
2023-03-19T05:59:48.389Z,1008.64
2023-03-19T06:00:48.325Z,1008.64
2023-03-19T06:01:48.383Z,1008.74
2023-03-19T06:02:48.410Z,1008.65
2023-03-19T06:03:48.358Z,1008.67
2023-03-19T06:04:48.286Z,1008.67
2023-03-19T06:05:48.311Z,1008.67
2023-03-19T06:06:48.249Z,1008.65
2023-03-19T06:07:48.259Z,1008.63
2023-03-19T06:08:48.714Z,1008.64
2023-03-19T06:09:48.432Z,1008.67
2023-03-19T06:10:48.230Z,1008.68
2023-03-19T06:11:48.224Z,1008.70
2023-03-19T06:12:48.192Z,1008.72
2023-03-19T06:13:48.222Z,1008.69
2023-03-19T06:14:48.201Z,1008.72
2023-03-19T06:15:48.217Z,1008.69
2023-03-19T06:16:48.351Z,1008.69
2023-03-19T06:17:48.163Z,1008.71
2023-03-19T06:18:48.133Z,1008.69
2023-03-19T06:19:48.150Z,1008.70
2023-03-19T06:20:48.112Z,1008.69
2023-03-19T06:21:48.099Z,1008.70
2023-03-19T06:22:48.634Z,1008.76
2023-03-19T06:23:48.080Z,1008.69
2023-03-19T06:24:48.057Z,1008.75
2023-03-19T06:25:48.098Z,1008.78
2023-03-19T06:26:48.034Z,1008.87
2023-03-19T06:27:48.033Z,1008.78
2023-03-19T06:28:48.015Z,1008.85
2023-03-19T06:29:48.013Z,1008.85
2023-03-19T06:30:48.007Z,1008.86
2023-03-19T06:31:48.069Z,1008.84
2023-03-19T06:32:47.985Z,1008.84
2023-03-19T06:33:47.976Z,1008.78
2023-03-19T06:34:48.976Z,1008.86
2023-03-19T06:35:48.009Z,1008.83
2023-03-19T06:36:47.962Z,1008.85
2023-03-19T06:37:47.918Z,1008.83
2023-03-19T06:38:47.916Z,1008.87
2023-03-19T06:39:47.938Z,1008.86
2023-03-19T06:40:47.910Z,1008.91
2023-03-19T06:41:47.912Z,1008.93
2023-03-19T06:42:47.861Z,1008.96
2023-03-19T06:43:47.907Z,1008.94
2023-03-19T06:44:47.863Z,1008.94
2023-03-19T06:45:47.896Z,1008.99
2023-03-19T06:46:47.867Z,1008.99
2023-03-19T06:47:47.796Z,1008.97
2023-03-19T06:48:47.796Z,1009.00
2023-03-19T06:49:49.261Z,1008.99
2023-03-19T06:50:49.264Z,1009.03
2023-03-19T06:51:47.776Z,1009.02
2023-03-19T06:52:47.809Z,1009.03
2023-03-19T06:53:47.978Z,1009.04
2023-03-19T06:54:47.829Z,1009.01
2023-03-19T06:55:49.220Z,1008.99
2023-03-19T06:56:48.494Z,1009.03
2023-03-19T06:57:47.745Z,1009.02
2023-03-19T06:58:47.913Z,1009.06
2023-03-19T06:59:47.692Z,1008.98
2023-03-19T07:00:47.833Z,1008.97
2023-03-19T07:01:48.037Z,1008.95
2023-03-19T07:02:48.416Z,1008.98
2023-03-19T07:03:48.474Z,1008.98
2023-03-19T07:04:47.630Z,1009.01
2023-03-19T07:05:48.892Z,1009.03
2023-03-19T07:06:47.770Z,1009.08
2023-03-19T07:07:47.602Z,1009.07
2023-03-19T07:08:48.851Z,1009.07
2023-03-19T07:09:47.907Z,1009.11
2023-03-19T07:10:48.963Z,1009.09
2023-03-19T07:11:47.572Z,1009.15
2023-03-19T07:12:47.547Z,1009.15
2023-03-19T07:13:47.544Z,1009.16
2023-03-19T07:14:47.521Z,1009.10
2023-03-19T07:15:47.508Z,1009.15
2023-03-19T07:16:47.546Z,1009.17
2023-03-19T07:17:47.533Z,1009.16
2023-03-19T07:18:47.461Z,1009.17
2023-03-19T07:19:47.455Z,1009.19
2023-03-19T07:20:47.435Z,1009.21
2023-03-19T07:21:47.452Z,1009.24
2023-03-19T07:22:47.437Z,1009.24
2023-03-19T07:23:47.427Z,1009.24
2023-03-19T07:24:47.411Z,1009.30
2023-03-19T07:25:47.385Z,1009.29
2023-03-19T07:26:47.378Z,1009.23
2023-03-19T07:27:47.352Z,1009.22
2023-03-19T07:28:47.324Z,1009.27
2023-03-19T07:29:47.358Z,1009.26
2023-03-19T07:30:47.304Z,1009.24
2023-03-19T07:31:47.386Z,1009.29
2023-03-19T07:32:47.365Z,1009.31
2023-03-19T07:33:47.289Z,1009.36
2023-03-19T07:34:47.270Z,1009.33
2023-03-19T07:35:47.330Z,1009.36
2023-03-19T07:36:47.293Z,1009.34
2023-03-19T07:37:47.256Z,1009.33
2023-03-19T07:38:47.241Z,1009.36
2023-03-19T07:39:47.216Z,1009.31
2023-03-19T07:41:01.032Z,1009.39
2023-03-19T07:41:48.234Z,1009.40
2023-03-19T07:42:47.230Z,1009.44
2023-03-19T07:43:47.581Z,1009.39
2023-03-19T07:44:47.168Z,1009.42
2023-03-19T07:45:47.240Z,1009.44
2023-03-19T07:46:48.250Z,1009.47
2023-03-19T07:47:49.271Z,1009.46
2023-03-19T07:48:47.174Z,1009.49
2023-03-19T07:49:47.162Z,1009.43
2023-03-19T07:50:47.110Z,1009.46
2023-03-19T07:51:48.607Z,1009.47
2023-03-19T07:52:47.185Z,1009.47
2023-03-19T07:53:48.020Z,1009.46
2023-03-19T07:54:47.073Z,1009.43
2023-03-19T07:55:47.108Z,1009.44
2023-03-19T07:56:47.019Z,1009.41
2023-03-19T07:57:48.490Z,1009.49
2023-03-19T07:58:47.019Z,1009.47
2023-03-19T07:59:47.033Z,1009.47
2023-03-19T08:00:47.029Z,1009.52
2023-03-19T08:01:47.007Z,1009.47
2023-03-19T08:02:47.921Z,1009.50
2023-03-19T08:03:46.962Z,1009.49
2023-03-19T08:04:47.388Z,1009.52
2023-03-19T08:05:46.925Z,1009.58
2023-03-19T08:06:46.946Z,1009.54
2023-03-19T08:07:46.950Z,1009.60
2023-03-19T08:08:46.895Z,1009.55
2023-03-19T08:09:48.475Z,1009.55
2023-03-19T08:10:48.341Z,1009.62
2023-03-19T08:11:46.876Z,1009.60
2023-03-19T08:12:46.861Z,1009.60
2023-03-19T08:13:46.896Z,1009.57
2023-03-19T08:14:46.825Z,1009.55
2023-03-19T08:15:47.143Z,1009.56
2023-03-19T08:16:46.824Z,1009.64
2023-03-19T08:17:46.803Z,1009.64
2023-03-19T08:18:46.801Z,1009.65
2023-03-19T08:19:46.831Z,1009.64
2023-03-19T08:20:46.763Z,1009.68
2023-03-19T08:21:47.257Z,1009.61
2023-03-19T08:22:46.816Z,1009.62
2023-03-19T08:23:47.186Z,1009.64
2023-03-19T08:24:46.714Z,1009.58
2023-03-19T08:25:46.748Z,1009.60
2023-03-19T08:26:46.692Z,1009.66
2023-03-19T08:27:47.447Z,1009.67
2023-03-19T08:28:47.469Z,1009.66
2023-03-19T08:29:46.677Z,1009.66
2023-03-19T08:30:46.699Z,1009.61
2023-03-19T08:31:47.453Z,1009.71
2023-03-19T08:32:46.710Z,1009.76
2023-03-19T08:33:46.616Z,1009.75
2023-03-19T08:34:49.390Z,1009.74
2023-03-19T08:35:46.660Z,1009.75
2023-03-19T08:36:46.566Z,1009.74
2023-03-19T08:37:46.602Z,1009.72
2023-03-19T08:38:46.552Z,1009.71
2023-03-19T08:39:46.549Z,1009.72
2023-03-19T08:40:46.564Z,1009.72
2023-03-19T08:41:46.530Z,1009.69
2023-03-19T08:42:46.512Z,1009.71
2023-03-19T08:43:47.970Z,1009.73
2023-03-19T08:44:46.622Z,1009.74
2023-03-19T08:45:46.477Z,1009.72
2023-03-19T08:46:46.489Z,1009.75
2023-03-19T08:47:46.434Z,1009.76
2023-03-19T08:48:46.471Z,1009.79
2023-03-19T08:49:46.446Z,1009.81
2023-03-19T08:50:46.403Z,1009.81
2023-03-19T08:51:46.417Z,1009.81
2023-03-19T08:52:46.429Z,1009.79
2023-03-19T08:53:47.857Z,1009.75
2023-03-19T08:54:46.399Z,1009.84
2023-03-19T08:55:46.362Z,1009.81
2023-03-19T08:56:46.323Z,1009.84
2023-03-19T08:57:46.327Z,1009.79
2023-03-19T08:58:47.138Z,1009.82
2023-03-19T08:59:46.367Z,1009.82
2023-03-19T09:00:46.388Z,1009.82
2023-03-19T09:01:46.769Z,1009.80
2023-03-19T09:02:46.280Z,1009.76
2023-03-19T09:03:47.370Z,1009.78
2023-03-19T09:04:46.308Z,1009.80
2023-03-19T09:05:46.242Z,1009.77
2023-03-19T09:06:46.285Z,1009.78
2023-03-19T09:07:46.268Z,1009.79
2023-03-19T09:08:46.256Z,1009.87
2023-03-19T09:09:46.192Z,1009.83
2023-03-19T09:10:46.188Z,1009.87
2023-03-19T09:11:46.194Z,1009.85
2023-03-19T09:12:48.410Z,1009.86
2023-03-19T09:13:46.179Z,1009.83
2023-03-19T09:14:46.278Z,1009.85
2023-03-19T09:15:46.175Z,1009.82
2023-03-19T09:16:46.116Z,1009.82
2023-03-19T09:17:46.133Z,1009.87
2023-03-19T09:18:46.123Z,1009.88
2023-03-19T09:19:46.134Z,1009.88
2023-03-19T09:20:46.062Z,1009.90
2023-03-19T09:21:46.081Z,1009.89
2023-03-19T09:22:46.046Z,1009.87
2023-03-19T09:23:47.511Z,1009.85
2023-03-19T09:24:46.021Z,1009.86
2023-03-19T09:25:46.063Z,1009.88
2023-03-19T09:26:46.020Z,1009.90
2023-03-19T09:27:46.029Z,1009.89
2023-03-19T09:28:46.016Z,1009.87
2023-03-19T09:29:45.990Z,1009.89
2023-03-19T09:30:45.954Z,1009.89
2023-03-19T09:31:47.995Z,1009.93
2023-03-19T09:32:47.453Z,1009.90
2023-03-19T09:33:45.932Z,1009.90
2023-03-19T09:34:45.916Z,1009.95
2023-03-19T09:35:45.917Z,1009.95
2023-03-19T09:36:45.944Z,1010.00
2023-03-19T09:37:45.912Z,1010.02
2023-03-19T09:38:45.876Z,1010.00
2023-03-19T09:39:45.892Z,1010.04
2023-03-19T09:40:45.890Z,1010.07
2023-03-19T09:41:45.841Z,1010.04
2023-03-19T09:42:45.839Z,1010.08
2023-03-19T09:43:45.821Z,1010.11
2023-03-19T09:44:45.858Z,1010.07
2023-03-19T09:45:45.808Z,1010.15
2023-03-19T09:46:45.818Z,1010.17
2023-03-19T09:47:45.784Z,1010.15
2023-03-19T09:48:45.761Z,1010.16
2023-03-19T09:49:45.770Z,1010.22
2023-03-19T09:50:47.807Z,1010.22
2023-03-19T09:51:45.874Z,1010.25
2023-03-19T09:52:45.728Z,1010.23
2023-03-19T09:53:45.778Z,1010.24
2023-03-19T09:54:46.503Z,1010.23
2023-03-19T09:55:45.717Z,1010.21
2023-03-19T09:56:46.017Z,1010.17
2023-03-19T09:57:45.995Z,1010.17
2023-03-19T09:58:45.688Z,1010.17
2023-03-19T09:59:47.147Z,1010.17
2023-03-19T10:00:45.644Z,1010.20
2023-03-19T10:01:45.656Z,1010.21
2023-03-19T10:02:45.626Z,1010.19
2023-03-19T10:03:45.834Z,1010.19
2023-03-19T10:04:45.805Z,1010.17
2023-03-19T10:05:45.582Z,1010.17
2023-03-19T10:06:45.599Z,1010.21
2023-03-19T10:07:45.664Z,1010.15
2023-03-19T10:08:45.590Z,1010.19
2023-03-19T10:09:46.510Z,1010.21
2023-03-19T10:10:45.514Z,1010.21
2023-03-19T10:11:45.528Z,1010.24
2023-03-19T10:12:46.943Z,1010.27
2023-03-19T10:13:46.928Z,1010.27
2023-03-19T10:14:45.487Z,1010.27
2023-03-19T10:15:45.455Z,1010.30
2023-03-19T10:16:45.478Z,1010.31
2023-03-19T10:17:45.424Z,1010.33
2023-03-19T10:18:46.487Z,1010.31
2023-03-19T10:19:45.570Z,1010.34
2023-03-19T10:20:45.429Z,1010.39
2023-03-19T10:21:45.415Z,1010.36
2023-03-19T10:22:45.382Z,1010.36
2023-03-19T10:23:46.170Z,1010.33
2023-03-19T10:24:45.349Z,1010.43
2023-03-19T10:25:45.339Z,1010.38
2023-03-19T10:26:46.342Z,1010.41
2023-03-19T10:27:45.314Z,1010.38
2023-03-19T10:28:45.309Z,1010.42
2023-03-19T10:29:45.321Z,1010.48
2023-03-19T10:30:45.424Z,1010.43
2023-03-19T10:31:45.574Z,1010.41
2023-03-19T10:32:45.415Z,1010.44
2023-03-19T10:33:45.558Z,1010.47
2023-03-19T10:34:45.265Z,1010.45
2023-03-19T10:35:45.255Z,1010.40
2023-03-19T10:36:45.233Z,1010.34
2023-03-19T10:37:45.211Z,1010.37
2023-03-19T10:38:45.486Z,1010.40
2023-03-19T10:39:45.190Z,1010.45
2023-03-19T10:40:45.168Z,1010.42
2023-03-19T10:41:45.169Z,1010.34
2023-03-19T10:42:45.192Z,1010.41
2023-03-19T10:43:45.208Z,1010.44
2023-03-19T10:44:45.127Z,1010.47
2023-03-19T10:45:45.153Z,1010.42
2023-03-19T10:46:45.142Z,1010.47
2023-03-19T10:47:45.194Z,1010.42
2023-03-19T10:48:45.129Z,1010.41
2023-03-19T10:49:45.074Z,1010.43
2023-03-19T10:50:46.511Z,1010.39
2023-03-19T10:51:45.051Z,1010.45
2023-03-19T10:52:45.856Z,1010.51
2023-03-19T10:53:46.497Z,1010.49
2023-03-19T10:54:45.038Z,1010.49
2023-03-19T10:55:45.073Z,1010.47
2023-03-19T10:56:44.999Z,1010.47
2023-03-19T10:57:45.058Z,1010.46
2023-03-19T10:58:45.005Z,1010.44
2023-03-19T10:59:44.944Z,1010.43
2023-03-19T11:00:45.074Z,1010.45
2023-03-19T11:01:44.963Z,1010.41
2023-03-19T11:02:44.928Z,1010.44
2023-03-19T11:03:44.949Z,1010.49
2023-03-19T11:04:44.946Z,1010.49
2023-03-19T11:05:45.002Z,1010.53
2023-03-19T11:06:44.915Z,1010.54
2023-03-19T11:07:44.946Z,1010.56
2023-03-19T11:08:44.866Z,1010.54
2023-03-19T11:09:44.877Z,1010.58
2023-03-19T11:10:44.847Z,1010.56
2023-03-19T11:11:44.804Z,1010.61
2023-03-19T11:12:44.836Z,1010.61
2023-03-19T11:13:45.812Z,1010.59
2023-03-19T11:14:44.787Z,1010.60
2023-03-19T11:15:44.839Z,1010.61
2023-03-19T11:16:44.799Z,1010.56
2023-03-19T11:17:44.779Z,1010.55
2023-03-19T11:18:45.530Z,1010.58
2023-03-19T11:19:44.738Z,1010.55
2023-03-19T11:20:44.726Z,1010.55
2023-03-19T11:21:44.715Z,1010.49
2023-03-19T11:22:44.720Z,1010.45
2023-03-19T11:23:45.740Z,1010.46
2023-03-19T11:24:44.682Z,1010.49
2023-03-19T11:25:44.714Z,1010.45
2023-03-19T11:26:44.665Z,1010.46
2023-03-19T11:27:44.661Z,1010.43
2023-03-19T11:28:44.699Z,1010.45
2023-03-19T11:29:44.599Z,1010.47
2023-03-19T11:30:44.606Z,1010.43
2023-03-19T11:31:44.662Z,1010.42
2023-03-19T11:32:44.725Z,1010.40
2023-03-19T11:33:45.553Z,1010.43
2023-03-19T11:34:44.600Z,1010.49
2023-03-19T11:35:44.621Z,1010.42
2023-03-19T11:36:44.542Z,1010.42
2023-03-19T11:37:44.526Z,1010.45
2023-03-19T11:38:44.536Z,1010.44
2023-03-19T11:39:44.544Z,1010.47
2023-03-19T11:40:44.505Z,1010.45
2023-03-19T11:41:44.511Z,1010.46
2023-03-19T11:42:44.598Z,1010.46
2023-03-19T11:43:44.474Z,1010.46
2023-03-19T11:44:44.466Z,1010.48
2023-03-19T11:45:44.562Z,1010.43
2023-03-19T11:46:44.443Z,1010.41
2023-03-19T11:47:44.427Z,1010.41
2023-03-19T11:48:44.471Z,1010.46
2023-03-19T11:49:44.396Z,1010.43
2023-03-19T11:50:45.972Z,1010.42
2023-03-19T11:51:44.369Z,1010.43
2023-03-19T11:52:44.357Z,1010.48
2023-03-19T11:53:44.351Z,1010.46
2023-03-19T11:54:44.365Z,1010.45
2023-03-19T11:55:44.351Z,1010.45
2023-03-19T11:56:44.365Z,1010.39
2023-03-19T11:57:44.307Z,1010.44
2023-03-19T11:58:44.287Z,1010.37
2023-03-19T11:59:45.307Z,1010.42
2023-03-19T12:00:44.255Z,1010.38
2023-03-19T12:01:44.257Z,1010.40
2023-03-19T12:02:45.258Z,1010.45
2023-03-19T12:03:44.280Z,1010.46
2023-03-19T12:04:44.212Z,1010.44
2023-03-19T12:05:44.223Z,1010.41